sensor_id;sensor_type;location;lat;lon;timestamp;pressure;altitude;pressure_sealevel;temperature;humidity
34031;BME280;20319;28.466;-16.274;2022-08-19T00:01:47;99837.38;;;25.34;57.65
34031;BME280;20319;28.466;-16.274;2022-08-19T00:04:15;99831.25;;;25.32;57.67
34031;BME280;20319;28.466;-16.274;2022-08-19T00:06:43;99855.06;;;25.43;57.60
34031;BME280;20319;28.466;-16.274;2022-08-19T00:09:11;99859.47;;;25.44;57.51
34031;BME280;20319;28.466;-16.274;2022-08-19T00:11:38;99862.22;;;25.44;57.58
34031;BME280;20319;28.466;-16.274;2022-08-19T00:14:06;99860.22;;;25.39;57.76
34031;BME280;20319;28.466;-16.274;2022-08-19T00:16:32;99853.91;;;25.39;57.75
34031;BME280;20319;28.466;-16.274;2022-08-19T00:18:58;99853.34;;;25.37;58.05
34031;BME280;20319;28.466;-16.274;2022-08-19T00:21:25;99841.06;;;25.28;58.05
34031;BME280;20319;28.466;-16.274;2022-08-19T00:23:52;99837.50;;;25.27;58.14
34031;BME280;20319;28.466;-16.274;2022-08-19T00:26:18;99843.88;;;25.33;57.95
34031;BME280;20319;28.466;-16.274;2022-08-19T00:28:44;99849.53;;;25.26;58.25
34031;BME280;20319;28.466;-16.274;2022-08-19T00:31:10;99848.22;;;25.29;58.70
34031;BME280;20319;28.466;-16.274;2022-08-19T00:33:36;99854.06;;;25.32;58.35
34031;BME280;20319;28.466;-16.274;2022-08-19T00:36:04;99851.41;;;25.37;58.28
34031;BME280;20319;28.466;-16.274;2022-08-19T00:38:31;99835.66;;;25.33;58.31
34031;BME280;20319;28.466;-16.274;2022-08-19T00:40:57;99840.41;;;25.37;58.27
34031;BME280;20319;28.466;-16.274;2022-08-19T00:43:26;99851.91;;;25.51;58.21
34031;BME280;20319;28.466;-16.274;2022-08-19T00:45:52;99827.63;;;25.43;58.24
34031;BME280;20319;28.466;-16.274;2022-08-19T00:48:19;99851.41;;;25.54;58.11
34031;BME280;20319;28.466;-16.274;2022-08-19T00:50:47;99845.59;;;25.50;57.75
34031;BME280;20319;28.466;-16.274;2022-08-19T00:53:16;99847.75;;;25.48;57.95
34031;BME280;20319;28.466;-16.274;2022-08-19T00:55:48;99846.34;;;25.46;57.78
34031;BME280;20319;28.466;-16.274;2022-08-19T00:58:17;99835.94;;;25.48;58.27
34031;BME280;20319;28.466;-16.274;2022-08-19T01:00:44;99831.38;;;25.37;58.28
34031;BME280;20319;28.466;-16.274;2022-08-19T01:03:13;99829.94;;;25.51;58.19
34031;BME280;20319;28.466;-16.274;2022-08-19T01:05:41;99829.19;;;25.55;58.25
34031;BME280;20319;28.466;-16.274;2022-08-19T01:08:07;99814.53;;;25.50;58.19
34031;BME280;20319;28.466;-16.274;2022-08-19T01:10:39;99827.53;;;25.54;57.95
34031;BME280;20319;28.466;-16.274;2022-08-19T01:13:06;99823.44;;;25.57;58.40
34031;BME280;20319;28.466;-16.274;2022-08-19T01:15:35;99812.28;;;25.47;58.43
34031;BME280;20319;28.466;-16.274;2022-08-19T01:18:09;99820.63;;;25.52;58.61
34031;BME280;20319;28.466;-16.274;2022-08-19T01:20:36;99822.78;;;25.50;58.58
34031;BME280;20319;28.466;-16.274;2022-08-19T01:23:03;99817.13;;;25.56;58.74
34031;BME280;20319;28.466;-16.274;2022-08-19T01:25:40;99813.31;;;25.57;58.55
34031;BME280;20319;28.466;-16.274;2022-08-19T01:28:07;99816.31;;;25.56;58.97
34031;BME280;20319;28.466;-16.274;2022-08-19T01:30:34;99823.78;;;25.60;58.90
34031;BME280;20319;28.466;-16.274;2022-08-19T01:33:01;99808.50;;;25.48;59.03
34031;BME280;20319;28.466;-16.274;2022-08-19T01:35:28;99814.97;;;25.58;59.38
34031;BME280;20319;28.466;-16.274;2022-08-19T01:38:01;99825.94;;;25.58;59.28
34031;BME280;20319;28.466;-16.274;2022-08-19T01:40:30;99822.59;;;25.56;59.65
34031;BME280;20319;28.466;-16.274;2022-08-19T01:42:56;99826.28;;;25.62;59.86
34031;BME280;20319;28.466;-16.274;2022-08-19T01:45:24;99824.63;;;25.61;59.98
34031;BME280;20319;28.466;-16.274;2022-08-19T01:47:52;99813.47;;;25.51;60.54
34031;BME280;20319;28.466;-16.274;2022-08-19T01:50:18;99841.09;;;25.61;60.61
34031;BME280;20319;28.466;-16.274;2022-08-19T01:52:44;99832.28;;;25.59;61.15
34031;BME280;20319;28.466;-16.274;2022-08-19T01:55:19;99838.28;;;25.56;61.21
34031;BME280;20319;28.466;-16.274;2022-08-19T01:57:49;99831.78;;;25.45;61.48
34031;BME280;20319;28.466;-16.274;2022-08-19T02:00:25;99816.94;;;25.30;61.73
34031;BME280;20319;28.466;-16.274;2022-08-19T02:02:51;99808.28;;;25.21;62.07
34031;BME280;20319;28.466;-16.274;2022-08-19T02:05:17;99819.44;;;25.31;62.17
34031;BME280;20319;28.466;-16.274;2022-08-19T02:07:44;99809.28;;;25.32;62.46
34031;BME280;20319;28.466;-16.274;2022-08-19T02:10:15;99805.47;;;25.33;62.24
34031;BME280;20319;28.466;-16.274;2022-08-19T02:12:43;99786.00;;;25.18;61.98
34031;BME280;20319;28.466;-16.274;2022-08-19T02:15:09;99813.09;;;25.31;61.81
34031;BME280;20319;28.466;-16.274;2022-08-19T02:17:35;99813.09;;;25.31;62.13
34031;BME280;20319;28.466;-16.274;2022-08-19T02:20:00;99819.94;;;25.28;62.07
34031;BME280;20319;28.466;-16.274;2022-08-19T02:22:26;99809.28;;;25.32;62.05
34031;BME280;20319;28.466;-16.274;2022-08-19T02:24:53;99810.59;;;25.29;61.63
34031;BME280;20319;28.466;-16.274;2022-08-19T02:27:19;99822.34;;;25.25;61.29
34031;BME280;20319;28.466;-16.274;2022-08-19T02:29:47;99809.72;;;25.24;61.19
34031;BME280;20319;28.466;-16.274;2022-08-19T02:32:19;99802.13;;;25.31;61.18
34031;BME280;20319;28.466;-16.274;2022-08-19T02:34:46;99794.47;;;25.33;60.96
34031;BME280;20319;28.466;-16.274;2022-08-19T02:37:14;99796.19;;;25.34;60.75
34031;BME280;20319;28.466;-16.274;2022-08-19T02:39:58;99806.97;;;25.40;60.20
34031;BME280;20319;28.466;-16.274;2022-08-19T02:42:25;99792.69;;;25.38;60.08
34031;BME280;20319;28.466;-16.274;2022-08-19T02:44:51;99791.59;;;25.39;59.98
34031;BME280;20319;28.466;-16.274;2022-08-19T02:47:17;99790.84;;;25.44;59.49
34031;BME280;20319;28.466;-16.274;2022-08-19T02:49:45;99784.13;;;25.35;58.85
34031;BME280;20319;28.466;-16.274;2022-08-19T02:52:11;99793.88;;;25.31;58.51
34031;BME280;20319;28.466;-16.274;2022-08-19T02:54:37;99787.00;;;25.28;58.26
34031;BME280;20319;28.466;-16.274;2022-08-19T02:57:04;99795.22;;;25.28;57.64
34031;BME280;20319;28.466;-16.274;2022-08-19T02:59:31;99784.50;;;25.27;57.94
34031;BME280;20319;28.466;-16.274;2022-08-19T03:01:57;99777.66;;;25.29;57.62
34031;BME280;20319;28.466;-16.274;2022-08-19T03:04:23;99778.00;;;25.33;57.31
34031;BME280;20319;28.466;-16.274;2022-08-19T03:06:50;99781.84;;;25.32;57.29
34031;BME280;20319;28.466;-16.274;2022-08-19T03:09:18;99778.50;;;25.30;57.81
34031;BME280;20319;28.466;-16.274;2022-08-19T03:11:44;99769.63;;;25.23;57.80
34031;BME280;20319;28.466;-16.274;2022-08-19T03:14:10;99782.84;;;25.26;57.66
34031;BME280;20319;28.466;-16.274;2022-08-19T03:16:50;99766.72;;;25.13;57.69
34031;BME280;20319;28.466;-16.274;2022-08-19T03:19:17;99787.84;;;25.29;57.43
34031;BME280;20319;28.466;-16.274;2022-08-19T03:21:45;99782.34;;;25.29;57.29
34031;BME280;20319;28.466;-16.274;2022-08-19T03:24:11;99776.03;;;25.28;57.85
34031;BME280;20319;28.466;-16.274;2022-08-19T03:26:46;99782.91;;;25.31;57.95
34031;BME280;20319;28.466;-16.274;2022-08-19T03:29:12;99777.28;;;25.21;57.53
34031;BME280;20319;28.466;-16.274;2022-08-19T03:31:39;99793.88;;;25.31;57.39
34031;BME280;20319;28.466;-16.274;2022-08-19T03:34:06;99790.34;;;25.30;57.53
34031;BME280;20319;28.466;-16.274;2022-08-19T03:36:32;99797.84;;;25.35;57.93
34031;BME280;20319;28.466;-16.274;2022-08-19T03:38:59;99790.69;;;25.34;57.90
34031;BME280;20319;28.466;-16.274;2022-08-19T03:41:31;99784.66;;;25.20;58.45
34031;BME280;20319;28.466;-16.274;2022-08-19T03:43:57;99805.31;;;25.23;58.25
34031;BME280;20319;28.466;-16.274;2022-08-19T03:46:27;99792.56;;;25.17;58.58
34031;BME280;20319;28.466;-16.274;2022-08-19T03:48:56;99809.13;;;25.22;59.21
34031;BME280;20319;28.466;-16.274;2022-08-19T03:51:27;99809.72;;;25.24;58.90
34031;BME280;20319;28.466;-16.274;2022-08-19T03:53:55;99804.81;;;25.26;59.39
34031;BME280;20319;28.466;-16.274;2022-08-19T03:56:21;99813.09;;;25.31;58.96
34031;BME280;20319;28.466;-16.274;2022-08-19T03:58:47;99814.34;;;25.23;59.30
34031;BME280;20319;28.466;-16.274;2022-08-19T04:01:16;99823.53;;;25.29;59.43
34031;BME280;20319;28.466;-16.274;2022-08-19T04:03:43;99832.25;;;25.26;59.60
34031;BME280;20319;28.466;-16.274;2022-08-19T04:06:13;99834.50;;;25.29;59.93
34031;BME280;20319;28.466;-16.274;2022-08-19T04:08:40;99845.59;;;25.34;59.73
34031;BME280;20319;28.466;-16.274;2022-08-19T04:11:16;99836.28;;;25.35;60.19
34031;BME280;20319;28.466;-16.274;2022-08-19T04:13:41;99841.13;;;25.33;60.31
34031;BME280;20319;28.466;-16.274;2022-08-19T04:16:09;99840.34;;;25.32;60.30
34031;BME280;20319;28.466;-16.274;2022-08-19T04:18:36;99841.56;;;25.25;60.46
34031;BME280;20319;28.466;-16.274;2022-08-19T04:21:03;99829.16;;;25.22;60.66
34031;BME280;20319;28.466;-16.274;2022-08-19T04:23:29;99835.00;;;25.26;60.49
34031;BME280;20319;28.466;-16.274;2022-08-19T04:25:56;99837.25;;;25.29;60.68
34031;BME280;20319;28.466;-16.274;2022-08-19T04:28:22;99829.56;;;25.31;60.53
34031;BME280;20319;28.466;-16.274;2022-08-19T04:30:51;99832.56;;;25.29;60.67
34031;BME280;20319;28.466;-16.274;2022-08-19T04:33:20;99837.75;;;25.26;60.29
34031;BME280;20319;28.466;-16.274;2022-08-19T04:35:49;99834.16;;;25.25;60.81
34031;BME280;20319;28.466;-16.274;2022-08-19T04:38:18;99831.06;;;25.22;60.49
34031;BME280;20319;28.466;-16.274;2022-08-19T04:40:47;99838.72;;;25.20;60.96
34031;BME280;20319;28.466;-16.274;2022-08-19T04:43:32;99841.72;;;25.18;60.99
34031;BME280;20319;28.466;-16.274;2022-08-19T04:46:04;99839.72;;;25.14;61.46
34031;BME280;20319;28.466;-16.274;2022-08-19T04:48:30;99837.47;;;25.11;61.19
34031;BME280;20319;28.466;-16.274;2022-08-19T04:50:57;99838.66;;;25.15;61.41
34031;BME280;20319;28.466;-16.274;2022-08-19T04:53:27;99843.16;;;25.21;60.81
34031;BME280;20319;28.466;-16.274;2022-08-19T04:55:55;99856.47;;;25.29;60.82
34031;BME280;20319;28.466;-16.274;2022-08-19T04:58:22;99866.09;;;25.31;60.42
34031;BME280;20319;28.466;-16.274;2022-08-19T05:00:48;99856.81;;;25.32;60.42
34031;BME280;20319;28.466;-16.274;2022-08-19T05:03:14;99859.06;;;25.35;60.29
34031;BME280;20319;28.466;-16.274;2022-08-19T05:05:43;99865.72;;;25.39;60.48
34031;BME280;20319;28.466;-16.274;2022-08-19T05:08:11;99862.97;;;25.39;59.89
34031;BME280;20319;28.466;-16.274;2022-08-19T05:10:38;99841.88;;;25.28;60.20
34031;BME280;20319;28.466;-16.274;2022-08-19T05:13:04;99859.97;;;25.41;59.71
34031;BME280;20319;28.466;-16.274;2022-08-19T05:15:30;99864.41;;;25.42;60.07
34031;BME280;20319;28.466;-16.274;2022-08-19T05:17:56;99851.66;;;25.36;59.38
34031;BME280;20319;28.466;-16.274;2022-08-19T05:20:40;99860.72;;;25.36;59.23
34031;BME280;20319;28.466;-16.274;2022-08-19T05:23:25;99861.09;;;25.28;59.31
34031;BME280;20319;28.466;-16.274;2022-08-19T05:25:51;99856.13;;;25.25;59.59
34031;BME280;20319;28.466;-16.274;2022-08-19T05:28:17;99847.63;;;25.27;59.46
34031;BME280;20319;28.466;-16.274;2022-08-19T05:30:44;99841.63;;;25.30;59.36
34031;BME280;20319;28.466;-16.274;2022-08-19T05:33:10;99850.59;;;25.37;58.92
34031;BME280;20319;28.466;-16.274;2022-08-19T05:35:38;99853.09;;;25.38;59.31
34031;BME280;20319;28.466;-16.274;2022-08-19T05:38:05;99854.50;;;25.41;58.88
34031;BME280;20319;28.466;-16.274;2022-08-19T05:40:34;99858.06;;;25.41;58.96
34031;BME280;20319;28.466;-16.274;2022-08-19T05:43:02;99866.56;;;25.40;58.72
34031;BME280;20319;28.466;-16.274;2022-08-19T05:45:28;99830.31;;;25.26;58.58
34031;BME280;20319;28.466;-16.274;2022-08-19T05:47:54;99835.00;;;25.26;58.67
34031;BME280;20319;28.466;-16.274;2022-08-19T05:50:20;99841.31;;;25.26;58.58
34031;BME280;20319;28.466;-16.274;2022-08-19T05:52:46;99848.72;;;25.26;58.86
34031;BME280;20319;28.466;-16.274;2022-08-19T05:55:12;99848.13;;;25.24;58.44
34031;BME280;20319;28.466;-16.274;2022-08-19T05:57:38;99852.78;;;25.23;58.24
34031;BME280;20319;28.466;-16.274;2022-08-19T06:00:05;99854.28;;;25.14;57.88
34031;BME280;20319;28.466;-16.274;2022-08-19T06:02:36;99850.59;;;25.09;58.31
34031;BME280;20319;28.466;-16.274;2022-08-19T06:05:04;99846.34;;;25.01;58.05
34031;BME280;20319;28.466;-16.274;2022-08-19T06:07:32;99840.03;;;25.01;57.95
34031;BME280;20319;28.466;-16.274;2022-08-19T06:09:58;99839.78;;;25.02;57.92
34031;BME280;20319;28.466;-16.274;2022-08-19T06:12:24;99837.97;;;25.08;58.21
34031;BME280;20319;28.466;-16.274;2022-08-19T06:14:55;99839.56;;;25.04;57.59
34031;BME280;20319;28.466;-16.274;2022-08-19T06:17:21;99843.13;;;25.04;57.60
34031;BME280;20319;28.466;-16.274;2022-08-19T06:19:50;99836.22;;;25.02;57.59
34031;BME280;20319;28.466;-16.274;2022-08-19T06:22:15;99848.75;;;24.98;57.28
34031;BME280;20319;28.466;-16.274;2022-08-19T06:24:41;99833.69;;;24.84;57.22
34031;BME280;20319;28.466;-16.274;2022-08-19T06:27:07;99849.28;;;24.83;57.71
34031;BME280;20319;28.466;-16.274;2022-08-19T06:29:33;99847.19;;;24.73;57.45
34031;BME280;20319;28.466;-16.274;2022-08-19T06:32:02;99866.25;;;24.80;57.71
34031;BME280;20319;28.466;-16.274;2022-08-19T06:34:30;99858.38;;;24.84;57.83
34031;BME280;20319;28.466;-16.274;2022-08-19T06:36:57;99876.59;;;24.90;58.03
34031;BME280;20319;28.466;-16.274;2022-08-19T06:39:28;99866.78;;;24.94;57.80
34031;BME280;20319;28.466;-16.274;2022-08-19T06:41:59;99867.41;;;24.96;57.71
34031;BME280;20319;28.466;-16.274;2022-08-19T06:44:27;99859.88;;;24.91;57.61
34031;BME280;20319;28.466;-16.274;2022-08-19T06:46:54;99879.03;;;25.03;57.51
34031;BME280;20319;28.466;-16.274;2022-08-19T06:49:21;99862.06;;;24.89;57.35
34031;BME280;20319;28.466;-16.274;2022-08-19T06:51:48;99892.09;;;24.96;57.41
34031;BME280;20319;28.466;-16.274;2022-08-19T06:54:15;99882.06;;;24.90;58.02
34031;BME280;20319;28.466;-16.274;2022-08-19T06:56:42;99883.06;;;24.84;58.09
34031;BME280;20319;28.466;-16.274;2022-08-19T06:59:14;99890.19;;;24.85;58.02
34031;BME280;20319;28.466;-16.274;2022-08-19T07:01:43;99887.78;;;24.88;58.36
34031;BME280;20319;28.466;-16.274;2022-08-19T07:04:12;99896.13;;;24.93;57.80
34031;BME280;20319;28.466;-16.274;2022-08-19T07:06:37;99882.31;;;24.88;58.09
34031;BME280;20319;28.466;-16.274;2022-08-19T07:09:10;99899.06;;;25.03;57.99
34031;BME280;20319;28.466;-16.274;2022-08-19T07:11:36;99896.75;;;25.12;57.89
34031;BME280;20319;28.466;-16.274;2022-08-19T07:14:03;99897.94;;;25.16;57.71
34031;BME280;20319;28.466;-16.274;2022-08-19T07:16:29;99899.09;;;25.20;57.82
34031;BME280;20319;28.466;-16.274;2022-08-19T07:18:55;99899.94;;;25.20;57.62
34031;BME280;20319;28.466;-16.274;2022-08-19T07:21:26;99899.44;;;25.23;57.69
34031;BME280;20319;28.466;-16.274;2022-08-19T07:23:56;99906.56;;;25.36;57.57
34031;BME280;20319;28.466;-16.274;2022-08-19T07:26:28;99915.16;;;25.28;57.33
34031;BME280;20319;28.466;-16.274;2022-08-19T07:28:55;99921.25;;;25.30;57.55
34031;BME280;20319;28.466;-16.274;2022-08-19T07:31:23;99925.31;;;25.27;57.47
34031;BME280;20319;28.466;-16.274;2022-08-19T07:33:51;99919.75;;;25.22;57.48
34031;BME280;20319;28.466;-16.274;2022-08-19T07:36:21;99924.13;;;25.23;57.67
34031;BME280;20319;28.466;-16.274;2022-08-19T07:38:49;99925.63;;;25.14;57.14
34031;BME280;20319;28.466;-16.274;2022-08-19T07:41:20;99921.38;;;25.07;57.61
34031;BME280;20319;28.466;-16.274;2022-08-19T07:43:52;99921.38;;;25.07;58.04
34031;BME280;20319;28.466;-16.274;2022-08-19T07:46:19;99919.66;;;25.17;57.80
34031;BME280;20319;28.466;-16.274;2022-08-19T07:48:46;99921.50;;;25.28;57.12
34031;BME280;20319;28.466;-16.274;2022-08-19T07:51:14;99920.66;;;25.28;57.36
34031;BME280;20319;28.466;-16.274;2022-08-19T07:53:41;99916.75;;;25.24;57.17
34031;BME280;20319;28.466;-16.274;2022-08-19T07:56:07;99913.66;;;25.20;57.30
34031;BME280;20319;28.466;-16.274;2022-08-19T07:58:36;99909.59;;;25.23;56.99
34031;BME280;20319;28.466;-16.274;2022-08-19T08:01:04;99919.59;;;25.29;56.99
34031;BME280;20319;28.466;-16.274;2022-08-19T08:03:30;99914.09;;;25.29;56.76
34031;BME280;20319;28.466;-16.274;2022-08-19T08:06:22;99935.09;;;25.35;56.87
34031;BME280;20319;28.466;-16.274;2022-08-19T08:09:07;99919.09;;;25.32;56.50
34031;BME280;20319;28.466;-16.274;2022-08-19T08:12:04;99899.09;;;25.20;56.59
34031;BME280;20319;28.466;-16.274;2022-08-19T08:14:34;99915.50;;;25.31;56.33
34031;BME280;20319;28.466;-16.274;2022-08-19T08:17:02;99898.03;;;25.21;56.52
34031;BME280;20319;28.466;-16.274;2022-08-19T08:19:28;99900.03;;;25.25;56.29
34031;BME280;20319;28.466;-16.274;2022-08-19T08:21:56;99902.44;;;25.22;56.41
34031;BME280;20319;28.466;-16.274;2022-08-19T08:24:23;99927.06;;;25.33;56.56
34031;BME280;20319;28.466;-16.274;2022-08-19T08:26:48;99923.63;;;25.26;56.33
34031;BME280;20319;28.466;-16.274;2022-08-19T08:29:14;99934.38;;;25.28;56.59
34031;BME280;20319;28.466;-16.274;2022-08-19T08:31:42;99909.41;;;25.29;56.33
34031;BME280;20319;28.466;-16.274;2022-08-19T08:34:09;99921.75;;;25.27;56.74
34031;BME280;20319;28.466;-16.274;2022-08-19T08:36:42;99905.75;;;25.24;56.21
34031;BME280;20319;28.466;-16.274;2022-08-19T08:39:15;99911.34;;;25.29;56.47
34031;BME280;20319;28.466;-16.274;2022-08-19T08:44:53;99917.66;;;25.29;56.03
34031;BME280;20319;28.466;-16.274;2022-08-19T08:47:25;99915.88;;;25.35;56.10
34031;BME280;20319;28.466;-16.274;2022-08-19T08:50:09;99917.72;;;25.46;56.19
34031;BME280;20319;28.466;-16.274;2022-08-19T08:52:46;99918.00;;;25.61;55.57
34031;BME280;20319;28.466;-16.274;2022-08-19T08:55:22;99935.47;;;25.88;55.08
34031;BME280;20319;28.466;-16.274;2022-08-19T08:57:51;99932.97;;;26.03;55.08
34031;BME280;20319;28.466;-16.274;2022-08-19T09:00:35;99923.03;;;26.18;54.77
34031;BME280;20319;28.466;-16.274;2022-08-19T09:03:03;99921.09;;;26.36;53.81
34031;BME280;20319;28.466;-16.274;2022-08-19T09:09:03;99925.38;;;26.48;53.83
34031;BME280;20319;28.466;-16.274;2022-08-19T09:14:20;99919.59;;;26.66;53.08
34031;BME280;20319;28.466;-16.274;2022-08-19T09:16:48;99907.31;;;26.74;53.54
34031;BME280;20319;28.466;-16.274;2022-08-19T09:19:14;99908.66;;;26.71;52.93
34031;BME280;20319;28.466;-16.274;2022-08-19T09:21:43;99914.75;;;26.73;52.59
34031;BME280;20319;28.466;-16.274;2022-08-19T09:24:08;99922.59;;;26.86;52.62
34031;BME280;20319;28.466;-16.274;2022-08-19T09:26:34;99911.94;;;26.95;52.48
34031;BME280;20319;28.466;-16.274;2022-08-19T09:29:00;99921.72;;;27.07;51.86
34031;BME280;20319;28.466;-16.274;2022-08-19T09:31:28;99927.22;;;27.07;52.17
34031;BME280;20319;28.466;-16.274;2022-08-19T09:33:55;99938.28;;;27.12;52.39
34031;BME280;20319;28.466;-16.274;2022-08-19T09:36:26;99937.69;;;27.05;51.77
34031;BME280;20319;28.466;-16.274;2022-08-19T09:38:52;99939.84;;;27.03;51.35
34031;BME280;20319;28.466;-16.274;2022-08-19T09:41:20;99938.13;;;26.97;51.78
34031;BME280;20319;28.466;-16.274;2022-08-19T09:43:49;99939.66;;;26.88;51.52
34031;BME280;20319;28.466;-16.274;2022-08-19T09:46:18;99925.81;;;26.78;51.30
34031;BME280;20319;28.466;-16.274;2022-08-19T09:48:47;99927.69;;;26.56;51.70
34031;BME280;20319;28.466;-16.274;2022-08-19T09:51:17;99941.59;;;26.66;51.80
34031;BME280;20319;28.466;-16.274;2022-08-19T09:53:47;99932.13;;;26.79;51.62
34031;BME280;20319;28.466;-16.274;2022-08-19T09:56:15;99943.72;;;26.81;51.58
34031;BME280;20319;28.466;-16.274;2022-08-19T09:58:41;99941.53;;;26.83;51.24
34031;BME280;20319;28.466;-16.274;2022-08-19T10:01:08;99937.34;;;26.80;51.08
34031;BME280;20319;28.466;-16.274;2022-08-19T10:03:35;99895.91;;;26.44;51.17
34031;BME280;20319;28.466;-16.274;2022-08-19T10:06:03;99947.16;;;26.71;51.45
34031;BME280;20319;28.466;-16.274;2022-08-19T10:08:33;99920.22;;;26.73;51.48
34031;BME280;20319;28.466;-16.274;2022-08-19T10:11:00;99919.41;;;26.94;51.74
34031;BME280;20319;28.466;-16.274;2022-08-19T10:13:28;99937.16;;;27.08;51.29
34031;BME280;20319;28.466;-16.274;2022-08-19T10:15:56;99927.34;;;27.17;51.20
34031;BME280;20319;28.466;-16.274;2022-08-19T10:18:23;99905.91;;;27.19;50.98
34031;BME280;20319;28.466;-16.274;2022-08-19T10:20:50;99916.25;;;27.34;50.63
34031;BME280;20319;28.466;-16.274;2022-08-19T10:23:19;99920.94;;;27.33;50.88
34031;BME280;20319;28.466;-16.274;2022-08-19T10:25:45;99924.00;;;27.37;50.85
34031;BME280;20319;28.466;-16.274;2022-08-19T10:28:11;99915.53;;;27.22;50.89
34031;BME280;20319;28.466;-16.274;2022-08-19T10:30:40;99915.47;;;27.38;51.12
34031;BME280;20319;28.466;-16.274;2022-08-19T10:33:06;99912.56;;;27.50;51.22
34031;BME280;20319;28.466;-16.274;2022-08-19T10:35:32;99927.50;;;27.59;50.83
34031;BME280;20319;28.466;-16.274;2022-08-19T10:37:58;99921.78;;;27.66;50.75
34031;BME280;20319;28.466;-16.274;2022-08-19T10:40:26;99920.50;;;27.78;50.95
34031;BME280;20319;28.466;-16.274;2022-08-19T10:42:53;99924.09;;;27.84;50.80
34031;BME280;20319;28.466;-16.274;2022-08-19T10:45:20;99941.34;;;27.96;51.15
34031;BME280;20319;28.466;-16.274;2022-08-19T10:47:48;99939.47;;;28.06;50.89
34031;BME280;20319;28.466;-16.274;2022-08-19T10:50:14;99950.06;;;28.19;50.62
34031;BME280;20319;28.466;-16.274;2022-08-19T10:53:03;99943.66;;;28.09;50.32
34031;BME280;20319;28.466;-16.274;2022-08-19T10:55:29;99926.81;;;28.05;50.62
34031;BME280;20319;28.466;-16.274;2022-08-19T10:58:16;99945.69;;;28.28;50.50
34031;BME280;20319;28.466;-16.274;2022-08-19T11:00:42;99946.25;;;28.30;50.24
34031;BME280;20319;28.466;-16.274;2022-08-19T11:03:09;99942.03;;;28.18;49.89
34031;BME280;20319;28.466;-16.274;2022-08-19T11:05:35;99946.91;;;28.01;50.47
34031;BME280;20319;28.466;-16.274;2022-08-19T11:08:02;99940.16;;;27.87;50.77
34031;BME280;20319;28.466;-16.274;2022-08-19T11:10:28;99949.16;;;27.77;51.19
34031;BME280;20319;28.466;-16.274;2022-08-19T11:12:54;99938.47;;;27.86;51.48
34031;BME280;20319;28.466;-16.274;2022-08-19T11:15:21;99956.81;;;28.02;51.33
34031;BME280;20319;28.466;-16.274;2022-08-19T11:17:46;99935.97;;;28.16;51.18
34031;BME280;20319;28.466;-16.274;2022-08-19T11:20:14;99941.13;;;28.44;50.70
34031;BME280;20319;28.466;-16.274;2022-08-19T11:22:40;99936.22;;;28.56;49.90
34031;BME280;20319;28.466;-16.274;2022-08-19T11:25:08;99926.06;;;28.61;49.76
34031;BME280;20319;28.466;-16.274;2022-08-19T11:27:40;99924.72;;;28.74;49.64
34031;BME280;20319;28.466;-16.274;2022-08-19T11:30:12;99928.38;;;28.89;49.06
34031;BME280;20319;28.466;-16.274;2022-08-19T11:32:38;99925.91;;;28.93;48.69
34031;BME280;20319;28.466;-16.274;2022-08-19T11:35:03;99907.91;;;28.85;48.71
34031;BME280;20319;28.466;-16.274;2022-08-19T11:37:29;99914.31;;;28.96;48.80
34031;BME280;20319;28.466;-16.274;2022-08-19T11:39:55;99925.41;;;29.11;48.04
34031;BME280;20319;28.466;-16.274;2022-08-19T11:42:20;99917.69;;;29.13;47.74
34031;BME280;20319;28.466;-16.274;2022-08-19T11:45:05;99918.03;;;29.27;47.69
34031;BME280;20319;28.466;-16.274;2022-08-19T11:47:30;99919.69;;;29.38;47.67
34031;BME280;20319;28.466;-16.274;2022-08-19T11:49:56;99911.13;;;29.49;47.40
34031;BME280;20319;28.466;-16.274;2022-08-19T11:52:22;99904.78;;;29.49;47.03
34031;BME280;20319;28.466;-16.274;2022-08-19T11:54:47;99910.56;;;29.57;46.40
34031;BME280;20319;28.466;-16.274;2022-08-19T11:57:13;99895.66;;;29.48;47.13
34031;BME280;20319;28.466;-16.274;2022-08-19T11:59:47;99906.47;;;29.65;46.95
34031;BME280;20319;28.466;-16.274;2022-08-19T12:02:12;99905.38;;;29.71;47.00
34031;BME280;20319;28.466;-16.274;2022-08-19T12:04:40;99889.59;;;29.76;46.48
34031;BME280;20319;28.466;-16.274;2022-08-19T12:07:06;99907.59;;;29.84;46.76
34031;BME280;20319;28.466;-16.274;2022-08-19T12:09:32;99895.69;;;29.83;46.62
34031;BME280;20319;28.466;-16.274;2022-08-19T12:12:00;99886.59;;;29.73;47.13
34031;BME280;20319;28.466;-16.274;2022-08-19T12:14:27;99888.78;;;29.66;47.16
34031;BME280;20319;28.466;-16.274;2022-08-19T12:16:55;99889.06;;;29.64;47.33
34031;BME280;20319;28.466;-16.274;2022-08-19T12:19:21;99887.94;;;29.70;47.27
34031;BME280;20319;28.466;-16.274;2022-08-19T12:21:47;99882.97;;;29.77;47.33
34031;BME280;20319;28.466;-16.274;2022-08-19T12:24:13;99889.31;;;29.83;47.13
34031;BME280;20319;28.466;-16.274;2022-08-19T12:26:39;99883.22;;;29.91;47.14
34031;BME280;20319;28.466;-16.274;2022-08-19T12:29:04;99883.50;;;30.04;46.62
34031;BME280;20319;28.466;-16.274;2022-08-19T12:31:31;99869.13;;;29.97;47.04
34031;BME280;20319;28.466;-16.274;2022-08-19T12:33:57;99870.75;;;30.03;46.35
34031;BME280;20319;28.466;-16.274;2022-08-19T12:36:23;99870.75;;;29.98;46.81
34031;BME280;20319;28.466;-16.274;2022-08-19T12:38:50;99864.72;;;29.96;46.48
34031;BME280;20319;28.466;-16.274;2022-08-19T12:41:17;99860.56;;;29.64;46.84
34031;BME280;20319;28.466;-16.274;2022-08-19T12:43:44;99863.03;;;29.35;47.44
34031;BME280;20319;28.466;-16.274;2022-08-19T12:46:10;99858.63;;;29.29;47.18
34031;BME280;20319;28.466;-16.274;2022-08-19T12:48:37;99834.88;;;29.18;47.61
34031;BME280;20319;28.466;-16.274;2022-08-19T12:51:09;99827.16;;;29.20;47.39
34031;BME280;20319;28.466;-16.274;2022-08-19T12:53:36;99842.91;;;29.35;47.37
34031;BME280;20319;28.466;-16.274;2022-08-19T12:56:02;99840.94;;;29.40;47.73